Time;durP1;ratioP1;P1;durP2;ratioP2;P2;SDS_P1;SDS_P2;PMS_P1;PMS_P2;Temp;Humidity;BMP_temperature;BMP_pressure;BME280_temperature;BME280_humidity;BME280_pressure;Samples;Min_cycle;Max_cycle;Signal;HPM_P1;HPM_P2
2023/02/12 00:00:41;;;;;;;7.68;4.57;;;;;;;15.61;81.64;103491.25;4973809;28;20023;-70
2023/02/12 00:03:07;;;;;;;6.63;4.43;;;;;;;15.63;80.59;103489.06;4973703;28;20038;-69
2023/02/12 00:05:33;;;;;;;7.53;4.70;;;;;;;15.62;80.37;103493.75;4963223;28;20047;-70
2023/02/12 00:07:58;;;;;;;8.00;4.90;;;;;;;15.64;79.64;103491.56;4972083;28;20506;-70
2023/02/12 00:10:24;;;;;;;7.65;4.43;;;;;;;15.63;79.64;103491.84;4973667;28;20030;-70
2023/02/12 00:12:53;;;;;;;5.63;4.25;;;;;;;15.68;78.56;103489.06;4973649;28;20034;-70
2023/02/12 00:15:19;;;;;;;9.80;5.05;;;;;;;15.96;74.91;103484.81;4973622;28;20118;-70
2023/02/12 00:17:44;;;;;;;5.72;3.90;;;;;;;15.83;75.48;103494.53;4970877;28;20109;-69
2023/02/12 00:20:10;;;;;;;8.75;4.35;;;;;;;15.70;77.10;103490.44;4979714;28;20177;-69
2023/02/12 00:22:36;;;;;;;6.47;4.10;;;;;;;15.68;77.98;103489.91;4973406;28;20374;-70
2023/02/12 00:25:01;;;;;;;5.63;3.88;;;;;;;15.70;78.49;103490.44;4973617;28;20027;-69
2023/02/12 00:27:27;;;;;;;5.75;4.20;;;;;;;15.58;80.54;103489.09;4973216;28;20042;-70
2023/02/12 00:29:53;;;;;;;8.98;4.35;;;;;;;15.62;79.76;103491.00;4973515;28;20481;-70
2023/02/12 00:32:18;;;;;;;7.40;3.63;;;;;;;15.69;78.83;103487.97;4971137;28;20470;-70
2023/02/12 00:34:47;;;;;;;8.27;4.07;;;;;;;15.68;78.85;103480.78;4965205;28;20477;-69
2023/02/12 00:37:12;;;;;;;7.47;4.43;;;;;;;15.70;78.75;103473.06;4973534;28;20047;-69
2023/02/12 00:39:38;;;;;;;7.68;3.88;;;;;;;15.67;78.95;103481.91;4973442;28;20512;-70
2023/02/12 00:42:04;;;;;;;8.77;4.10;;;;;;;15.65;78.95;103470.34;4973433;28;20037;-70
2023/02/12 00:44:30;;;;;;;5.15;3.53;;;;;;;15.59;79.57;103476.94;4972930;28;20034;-70
2023/02/12 00:47:01;;;;;;;6.18;3.92;;;;;;;15.63;79.67;103467.84;4964812;28;20037;-70
2023/02/12 00:49:33;;;;;;;5.75;3.58;;;;;;;15.53;80.59;103473.38;4973324;28;20469;-70
2023/02/12 00:52:03;;;;;;;6.95;3.70;;;;;;;15.55;79.99;103469.22;4973404;28;20109;-70
2023/02/12 00:54:30;;;;;;;5.10;3.58;;;;;;;15.54;80.41;103470.34;4973341;28;20031;-70
2023/02/12 00:56:56;;;;;;;6.75;3.45;;;;;;;15.51;81.37;103473.66;4971962;28;20489;-70
2023/02/12 00:59:22;;;;;;;9.77;4.50;;;;;;;15.42;82.18;103466.25;4970647;28;20035;-70
2023/02/12 01:01:49;;;;;;;7.07;3.88;;;;;;;15.52;80.54;103475.31;4964616;28;20058;-71
2023/02/12 01:04:15;;;;;;;7.03;4.03;;;;;;;15.50;80.92;103468.44;4973210;28;20526;-69
2023/02/12 01:06:40;;;;;;;6.75;3.85;;;;;;;15.55;80.10;103468.41;4972899;28;20113;-70
2023/02/12 01:09:06;;;;;;;6.32;4.07;;;;;;;15.54;80.02;103470.34;4973399;28;20106;-70
2023/02/12 01:11:32;;;;;;;8.20;4.00;;;;;;;15.59;79.70;103468.69;4970803;28;20482;-70
2023/02/12 01:13:57;;;;;;;7.75;4.38;;;;;;;15.61;79.55;103460.94;4962557;28;20042;-71
2023/02/12 01:16:23;;;;;;;6.15;3.67;;;;;;;15.67;78.44;103457.94;4968501;28;20039;-70
2023/02/12 01:18:51;;;;;;;7.55;3.35;;;;;;;15.54;81.21;103456.56;4974512;28;20037;-70
2023/02/12 01:21:19;;;;;;;3.80;2.50;;;;;;;15.52;79.93;103453.25;4976373;28;20158;-70
2023/02/12 01:23:46;;;;;;;6.90;3.05;;;;;;;15.18;85.21;103447.56;4976688;28;20030;-70
2023/02/12 01:26:12;;;;;;;4.82;2.17;;;;;;;15.18;86.07;103452.25;4970848;28;20027;-69
2023/02/12 01:28:39;;;;;;;5.00;2.20;;;;;;;15.09;87.93;103457.50;4970121;28;20401;-70
2023/02/12 01:31:13;;;;;;;2.63;1.85;;;;;;;15.11;88.60;103455.28;4976338;28;20077;-69
2023/02/12 01:33:39;;;;;;;4.43;1.95;;;;;;;15.42;84.52;103455.25;4976608;28;20454;-70
2023/02/12 01:36:06;;;;;;;2.88;1.80;;;;;;;15.64;79.55;103454.88;4976395;28;20547;-69
2023/02/12 01:38:31;;;;;;;3.05;1.65;;;;;;;15.61;79.46;103455.44;4970366;28;20106;-69
2023/02/12 01:41:15;;;;;;;6.55;2.45;;;;;;;16.16;72.23;103456.28;4964871;28;20058;-78
2023/02/12 01:43:41;;;;;;;6.60;2.42;;;;;;;16.09;70.45;103451.91;4956763;28;20041;-70
2023/02/12 01:46:10;;;;;;;3.70;2.20;;;;;;;15.39;82.62;103442.81;4968573;28;20027;-69
2023/02/12 01:48:40;;;;;;;4.93;2.60;;;;;;;15.86;76.51;103437.97;4976320;28;20030;-70
2023/02/12 01:51:08;;;;;;;;;;;;;;;15.86;75.61;103436.06;4972827;28;20015;-70
2023/02/12 01:53:39;;;;;;;4.90;2.40;;;;;;;15.62;79.89;103435.88;4983832;28;19914;-69
2023/02/12 01:56:06;;;;;;;8.63;2.13;;;;;;;16.01;75.76;103427.69;4975759;28;20456;-70
2023/02/12 01:58:37;;;;;;;3.85;2.30;;;;;;;16.18;72.43;103430.09;4976139;28;20113;-70
2023/02/12 02:01:05;;;;;;;5.32;2.50;;;;;;;16.17;72.04;103424.84;4975887;28;20050;-70
2023/02/12 02:03:32;;;;;;;4.50;2.50;;;;;;;15.76;77.66;103423.16;4974107;28;20042;-70
2023/02/12 02:06:16;;;;;;;8.10;2.20;;;;;;;15.70;78.83;103417.94;4970919;28;20055;-70
2023/02/12 02:08:42;;;;;;;5.35;2.28;;;;;;;15.76;78.66;103412.13;4975654;28;20102;-69
2023/02/12 02:16:44;;;;;;;5.97;2.00;;;;;;;15.71;80.76;103405.81;4972366;28;20041;-70
2023/02/12 02:19:35;;;;;;;3.83;2.15;;;;;;;15.74;79.54;103408.84;4963470;28;20022;-70
2023/02/12 02:22:10;;;;;;;3.58;1.73;;;;;;;15.70;80.62;103398.66;4937169;29;20118;-69
2023/02/12 02:24:52;;;;;;;5.35;2.53;;;;;;;15.68;81.41;103414.66;4956071;29;20036;-70
2023/02/12 02:27:34;;;;;;;4.03;2.13;;;;;;;15.65;81.27;103410.53;4956144;28;20034;-70
2023/02/12 02:30:22;;;;;;;5.78;2.45;;;;;;;15.65;81.58;103405.03;4957638;28;20034;-70
2023/02/12 02:32:58;;;;;;;3.63;2.20;;;;;;;15.32;87.26;103408.41;4973721;28;20027;-70
2023/02/12 02:35:34;;;;;;;4.82;2.63;;;;;;;15.26;89.12;103413.09;4975463;28;20417;-70
2023/02/12 02:38:09;;;;;;;4.63;2.15;;;;;;;15.23;89.71;103411.75;4975475;28;20431;-70
2023/02/12 02:41:16;;;;;;;3.80;2.38;;;;;;;15.24;89.62;103418.06;4975074;28;20023;-70
2023/02/12 02:43:51;;;;;;;6.50;2.20;;;;;;;15.22;90.09;103409.28;4961808;28;20043;-70
2023/02/12 02:46:29;;;;;;;4.63;2.28;;;;;;;15.22;90.26;103418.38;4974165;28;20065;-69
2023/02/12 02:48:59;;;;;;;4.57;1.90;;;;;;;15.39;87.77;103417.22;4975019;28;20026;-70
2023/02/12 02:51:32;;;;;;;3.45;1.98;;;;;;;15.35;87.81;103413.38;4973417;28;20034;-70
2023/02/12 02:54:08;;;;;;;3.97;2.05;;;;;;;15.40;87.22;103413.34;4974707;28;20027;-71
2023/02/12 02:56:37;;;;;;;4.72;2.38;;;;;;;15.35;88.01;103416.97;4974399;28;20508;-70
2023/02/12 02:59:07;;;;;;;5.20;2.50;;;;;;;15.32;89.19;103424.94;4965982;28;20042;-69
2023/02/12 03:01:42;;;;;;;4.32;2.45;;;;;;;15.30;89.69;103416.97;4961616;28;20041;-70
2023/02/12 03:04:28;;;;;;;4.10;2.42;;;;;;;15.12;94.26;103414.81;4974683;28;20062;-69
2023/02/12 03:07:12;;;;;;;3.85;2.17;;;;;;;15.13;93.67;103414.53;4974604;28;20037;-69
2023/02/12 03:09:43;;;;;;;6.03;2.72;;;;;;;15.16;92.46;103408.47;4974405;28;20093;-70
2023/02/12 03:12:21;;;;;;;5.22;2.40;;;;;;;15.15;91.82;103423.34;4966229;28;20034;-70
2023/02/12 03:15:06;;;;;;;4.43;2.47;;;;;;;15.03;94.40;103413.72;4974133;28;20488;-70
2023/02/12 03:17:36;;;;;;;4.50;2.60;;;;;;;15.09;92.99;103410.69;4974233;28;20034;-69
2023/02/12 03:20:09;;;;;;;4.53;2.50;;;;;;;15.08;92.79;103402.69;4974479;28;20030;-69
2023/02/12 03:22:38;;;;;;;4.15;2.58;;;;;;;15.08;93.08;103402.69;4974167;28;20114;-70
2023/02/12 03:25:13;;;;;;;6.17;2.57;;;;;;;15.15;91.79;103397.72;4972554;28;20034;-70
2023/02/12 03:27:49;;;;;;;5.63;2.80;;;;;;;15.08;93.51;103392.50;4963742;28;20102;-69
2023/02/12 03:30:15;;;;;;;6.32;2.60;;;;;;;15.08;93.59;103387.00;4954932;28;20024;-69
2023/02/12 03:32:57;;;;;;;5.43;2.67;;;;;;;15.09;94.25;103385.06;4969702;28;20061;-70
2023/02/12 03:35:39;;;;;;;4.10;2.55;;;;;;;15.05;94.82;103384.81;4974112;28;20110;-70
2023/02/12 03:38:19;;;;;;;3.58;2.42;;;;;;;15.07;94.08;103381.78;4973652;28;20019;-70
2023/02/12 03:41:10;;;;;;;5.20;2.83;;;;;;;15.09;93.37;103379.56;4963559;28;20035;-70
2023/02/12 03:43:53;;;;;;;6.15;3.10;;;;;;;15.11;92.98;103388.38;4973853;28;20049;-69
2023/02/12 03:46:37;;;;;;;4.93;2.55;;;;;;;15.20;91.44;103382.03;4972727;28;20441;-69
2023/02/12 03:49:17;;;;;;;4.25;2.38;;;;;;;15.08;93.55;103384.25;4973874;28;20101;-69
2023/02/12 03:51:44;;;;;;;5.72;2.58;;;;;;;15.24;90.60;103374.84;4972449;28;20434;-69
2023/02/12 03:54:13;;;;;;;5.20;2.42;;;;;;;14.96;93.81;103376.31;4963073;28;20034;-70
2023/02/12 03:56:56;;;;;;;6.75;2.63;;;;;;;14.97;96.42;103380.72;4973886;28;20109;-70
2023/02/12 03:59:23;;;;;;;4.85;2.67;;;;;;;14.97;94.94;103382.63;4973753;28;20114;-69
2023/02/12 04:01:52;;;;;;;7.25;3.50;;;;;;;15.13;92.40;103384.25;4973933;28;20034;-76
2023/02/12 04:04:19;;;;;;;5.47;2.88;;;;;;;14.99;94.04;103377.66;4973471;28;20105;-70
2023/02/12 04:06:47;;;;;;;4.88;3.00;;;;;;;14.80;99.68;103377.41;4970913;28;20031;-69
2023/02/12 04:09:13;;;;;;;5.53;3.20;;;;;;;14.83;99.29;103381.56;4957685;28;20398;-69
2023/02/12 04:11:57;;;;;;;5.53;2.38;;;;;;;14.62;100.00;103383.50;4963406;28;20054;-71
2023/02/12 04:15:01;;;;;;;4.78;2.55;;;;;;;14.51;100.00;103384.59;4973687;28;20023;-70
2023/02/12 04:17:47;;;;;;;4.35;2.83;;;;;;;14.62;100.00;103381.56;4969568;28;20047;-69
2023/02/12 04:20:15;;;;;;;4.22;2.70;;;;;;;14.66;100.00;103382.69;4972704;28;20030;-70
2023/02/12 04:23:18;;;;;;;4.25;2.75;;;;;;;14.77;99.51;103388.16;4968512;28;20042;-70
2023/02/12 04:26:09;;;;;;;3.85;2.53;;;;;;;14.81;98.36;103379.09;4954360;29;20028;-69
2023/02/12 04:28:35;;;;;;;4.18;2.25;;;;;;;14.81;98.20;103384.59;4954363;28;20027;-70
2023/02/12 04:31:07;;;;;;;6.25;2.90;;;;;;;14.78;98.76;103384.31;4957358;28;20050;-71
2023/02/12 04:33:47;;;;;;;4.43;3.00;;;;;;;14.81;98.16;103390.09;4973529;28;20039;-70
2023/02/12 04:36:15;;;;;;;;;;;;;;;14.88;96.19;103379.59;4963513;28;20030;-70
2023/02/12 04:38:50;;;;;;;5.40;3.10;;;;;;;14.87;95.23;103375.19;4972986;28;20009;-78
2023/02/12 04:41:16;;;;;;;7.13;3.28;;;;;;;14.84;95.80;103375.78;4973472;28;20035;-78
2023/02/12 04:43:42;;;;;;;6.47;3.08;;;;;;;14.90;94.71;103387.59;4973408;28;20509;-75
2023/02/12 04:46:07;;;;;;;5.05;3.05;;;;;;;14.98;92.84;103387.03;4973407;28;20366;-69
2023/02/12 04:48:36;;;;;;;8.35;2.90;;;;;;;15.02;91.53;103382.59;4973010;28;20524;-71
2023/02/12 04:51:01;;;;;;;5.05;2.72;;;;;;;15.06;91.01;103385.66;4962394;28;20038;-72
2023/02/12 04:53:27;;;;;;;4.97;2.55;;;;;;;15.05;91.00;103395.00;4975830;28;20057;-69
2023/02/12 04:55:54;;;;;;;6.03;3.25;;;;;;;15.04;91.51;103393.34;4975801;28;20035;-75
2023/02/12 04:58:19;;;;;;;9.13;3.25;;;;;;;15.03;91.46;103394.44;4969114;28;20028;-76
2023/02/12 05:00:45;;;;;;;5.65;2.60;;;;;;;15.04;91.11;103390.59;4965022;28;20110;-76
2023/02/12 05:03:10;;;;;;;5.97;2.67;;;;;;;14.99;91.46;103396.94;4976911;28;20039;-72
2023/02/12 05:05:36;;;;;;;3.15;2.65;;;;;;;15.18;87.91;103389.72;4976712;28;20047;-71
2023/02/12 05:08:02;;;;;;;9.95;5.68;;;;;;;15.47;82.96;103398.16;4976792;28;20054;-75
2023/02/12 05:10:27;;;;;;;7.10;4.07;;;;;;;15.58;80.66;103398.13;4976203;28;20082;-74
2023/02/12 05:12:54;;;;;;;8.35;3.55;;;;;;;15.66;78.55;103392.06;4968087;28;20038;-71
2023/02/12 05:15:20;;;;;;;6.95;3.58;;;;;;;16.01;74.72;103394.59;4957541;28;20114;-75
2023/02/12 05:17:46;;;;;;;3.83;2.53;;;;;;;15.57;77.56;103400.06;4976679;28;20106;-78
2023/02/12 05:20:13;;;;;;;4.78;2.70;;;;;;;15.36;82.07;103385.53;4976929;28;20159;-77
2023/02/12 05:22:38;;;;;;;3.60;2.53;;;;;;;15.32;83.42;103387.19;4976276;28;20034;-76
2023/02/12 05:25:05;;;;;;;4.00;2.45;;;;;;;15.37;82.67;103392.69;4965706;28;20522;-77
2023/02/12 05:27:30;;;;;;;3.80;2.53;;;;;;;15.22;84.91;103385.31;4976712;28;20062;-76
2023/02/12 05:29:56;;;;;;;5.53;2.75;;;;;;;15.31;83.99;103385.56;4976460;28;20465;-75
2023/02/12 05:32:23;;;;;;;4.75;2.60;;;;;;;14.99;89.64;103396.94;4976370;28;20033;-77
2023/02/12 05:34:48;;;;;;;5.25;2.42;;;;;;;14.81;93.92;103401.13;4975102;28;20038;-76
2023/02/12 05:37:14;;;;;;;5.03;2.22;;;;;;;14.92;93.41;103393.66;4975469;28;20070;-76
2023/02/12 05:39:39;;;;;;;5.07;2.20;;;;;;;14.93;93.22;103396.13;4967488;28;20129;-76
2023/02/12 05:42:05;;;;;;;5.43;2.55;;;;;;;14.84;95.11;103395.03;4970249;28;20118;-76
2023/02/12 05:44:30;;;;;;;3.75;2.00;;;;;;;14.96;93.46;103389.22;4976067;28;20034;-76
2023/02/12 05:46:56;;;;;;;3.30;1.90;;;;;;;15.03;91.92;103389.75;4976115;28;20031;-77
2023/02/12 05:49:21;;;;;;;3.67;1.77;;;;;;;15.01;92.71;103391.16;4976356;28;20409;-77
2023/02/12 05:51:47;;;;;;;4.65;2.25;;;;;;;15.06;92.12;103391.97;4969408;28;20031;-77
2023/02/12 05:54:13;;;;;;;3.03;1.63;;;;;;;15.12;90.86;103390.03;4974408;28;20359;-77
2023/02/12 05:56:45;;;;;;;4.57;1.90;;;;;;;15.02;93.40;103390.88;4994673;28;20469;-77
2023/02/12 05:59:20;;;;;;;4.15;2.05;;;;;;;14.97;94.38;103388.16;4995358;28;20473;-77
2023/02/12 06:01:47;;;;;;;3.67;1.75;;;;;;;15.01;94.02;103386.47;4984436;28;20038;-78
2023/02/12 06:04:15;;;;;;;4.95;2.50;;;;;;;15.01;94.49;103380.97;4970642;28;20054;-70
2023/02/12 06:06:41;;;;;;;4.15;2.25;;;;;;;15.16;92.69;103388.34;4974645;28;20513;-68
2023/02/12 06:09:09;;;;;;;5.15;2.20;;;;;;;15.15;91.81;103381.22;4975646;28;20062;-68
2023/02/12 06:11:34;;;;;;;4.25;1.88;;;;;;;15.18;92.39;103391.66;4975560;28;20464;-69
2023/02/12 06:14:05;;;;;;;7.00;2.30;;;;;;;15.11;92.73;103386.44;4975592;28;20109;-69
2023/02/12 06:16:31;;;;;;;4.95;1.52;;;;;;;14.95;96.96;103393.09;4975569;28;20110;-69
2023/02/12 06:18:59;;;;;;;4.10;2.22;;;;;;;15.02;96.69;103382.59;4974289;28;20039;-71
2023/02/12 06:21:26;;;;;;;2.90;2.03;;;;;;;15.07;94.93;103377.09;4975337;28;20477;-68
2023/02/12 06:23:52;;;;;;;4.18;1.80;;;;;;;15.00;96.82;103382.06;4975477;28;20042;-69
2023/02/12 06:26:18;;;;;;;2.47;1.73;;;;;;;15.03;96.84;103383.44;4975445;28;20023;-69
2023/02/12 06:28:45;;;;;;;3.53;1.63;;;;;;;15.06;95.82;103375.44;4975416;28;20631;-68
2023/02/12 06:31:20;;;;;;;5.22;1.95;;;;;;;14.99;98.74;103385.94;4974970;28;20026;-68
2023/02/12 06:33:46;;;;;;;3.13;1.73;;;;;;;15.12;95.28;103381.78;4975238;28;20041;-68
2023/02/12 06:36:12;;;;;;;4.43;1.70;;;;;;;14.92;99.53;103377.97;4975167;28;20493;-68
2023/02/12 06:38:37;;;;;;;10.73;2.78;;;;;;;15.11;96.14;103378.16;4975076;28;20029;-69
2023/02/12 06:41:03;;;;;;;4.25;1.50;;;;;;;15.05;97.76;103372.97;4974951;28;20061;-73
2023/02/12 06:43:29;;;;;;;4.03;1.70;;;;;;;15.07;97.72;103370.78;4975007;28;20034;-69
2023/02/12 06:45:55;;;;;;;3.67;1.65;;;;;;;15.13;96.61;103373.22;4974962;28;20061;-69
2023/02/12 06:48:20;;;;;;;4.07;1.90;;;;;;;15.11;97.16;103371.84;4974968;28;20026;-68
2023/02/12 06:50:46;;;;;;;4.05;2.13;;;;;;;15.12;97.54;103373.53;4974740;28;20109;-69
2023/02/12 06:53:11;;;;;;;3.58;1.75;;;;;;;15.04;99.61;103365.81;4974905;28;20126;-68
2023/02/12 06:55:37;;;;;;;3.58;1.65;;;;;;;15.10;97.59;103364.69;4975061;28;20015;-68
2023/02/12 06:58:03;;;;;;;4.72;1.52;;;;;;;15.18;96.16;103364.94;4974754;28;20362;-68
2023/02/12 07:00:28;;;;;;;3.20;1.67;;;;;;;15.31;93.31;103365.44;4974627;28;20027;-69
2023/02/12 07:02:55;;;;;;;6.43;1.73;;;;;;;15.04;99.66;103366.66;4974576;28;20034;-68
2023/02/12 07:05:21;;;;;;;3.38;1.70;;;;;;;14.95;100.00;103368.31;4974441;28;20159;-69
2023/02/12 07:07:46;;;;;;;4.53;1.60;;;;;;;15.05;99.83;103365.53;4974660;28;20110;-68
2023/02/12 07:10:12;;;;;;;4.07;1.80;;;;;;;15.19;96.81;103374.03;4974572;28;20049;-68
2023/02/12 07:12:37;;;;;;;3.55;1.80;;;;;;;15.18;97.11;103369.63;4974429;28;20038;-69
2023/02/12 07:15:03;;;;;;;3.28;2.10;;;;;;;15.19;97.17;103366.59;4974459;28;20040;-69
2023/02/12 07:17:29;;;;;;;3.60;1.70;;;;;;;15.13;98.82;103364.97;4974748;28;20108;-68
2023/02/12 07:19:55;;;;;;;5.18;1.75;;;;;;;15.16;98.48;103374.59;4974442;28;20034;-68
2023/02/12 07:22:21;;;;;;;2.85;1.50;;;;;;;15.12;99.98;103368.00;4974239;28;20026;-68
2023/02/12 07:24:47;;;;;;;2.33;1.33;;;;;;;15.17;98.23;103362.47;4974025;28;20562;-69
2023/02/12 07:27:13;;;;;;;2.58;1.42;;;;;;;15.16;98.42;103358.06;4974197;28;20477;-69
2023/02/12 07:29:39;;;;;;;5.13;2.10;;;;;;;15.17;98.27;103373.47;4972956;28;20053;-69
2023/02/12 07:32:05;;;;;;;3.83;1.90;;;;;;;15.18;97.81;103375.13;4973694;28;20437;-69
2023/02/12 07:34:31;;;;;;;4.63;1.73;;;;;;;15.11;99.92;103371.84;4973888;28;20129;-69
2023/02/12 07:36:56;;;;;;;3.63;1.83;;;;;;;15.01;100.00;103367.19;4974129;28;20027;-69
2023/02/12 07:39:22;;;;;;;4.05;1.50;;;;;;;15.02;100.00;103373.53;4973885;28;20089;-68
2023/02/12 07:41:48;;;;;;;2.28;1.60;;;;;;;14.98;100.00;103382.34;4974345;28;20041;-69
2023/02/12 07:44:14;;;;;;;2.67;1.60;;;;;;;15.11;99.64;103380.09;4973758;28;20043;-68
2023/02/12 07:46:44;;;;;;;4.50;1.77;;;;;;;15.09;100.00;103385.06;4973931;28;20101;-74
2023/02/12 07:49:15;;;;;;;4.07;1.90;;;;;;;15.13;99.92;103381.50;4974000;28;20041;-75
2023/02/12 07:51:41;;;;;;;4.60;1.75;;;;;;;15.15;99.60;103389.47;4973972;28;20058;-76
2023/02/12 07:54:07;;;;;;;2.97;1.80;;;;;;;15.20;98.12;103386.72;4973970;28;20473;-68
2023/02/12 07:56:36;;;;;;;3.85;1.40;;;;;;;15.16;99.28;103393.88;4973367;28;20449;-68
2023/02/12 07:59:10;;;;;;;6.07;1.75;;;;;;;15.13;100.00;103397.19;4973806;28;20031;-68
2023/02/12 08:01:37;;;;;;;5.03;1.80;;;;;;;15.11;100.00;103399.38;4973829;28;20031;-68
2023/02/12 08:04:15;;;;;;;3.20;1.45;;;;;;;15.17;98.99;103395.50;4973541;28;20062;-69
2023/02/12 08:06:43;;;;;;;4.35;1.60;;;;;;;15.13;100.00;103399.94;4973946;28;20057;-70
2023/02/12 08:09:11;;;;;;;4.05;1.60;;;;;;;15.15;100.00;103400.47;4973947;28;20030;-72
2023/02/12 08:11:38;;;;;;;3.95;1.80;;;;;;;15.05;100.00;103406.03;4975091;28;20037;-72
2023/02/12 08:14:04;;;;;;;4.55;2.03;;;;;;;14.91;100.00;103403.03;4974790;28;20081;-78
2023/02/12 08:16:30;;;;;;;4.82;1.48;;;;;;;15.02;100.00;103407.38;4973690;28;20409;-76
2023/02/12 08:18:56;;;;;;;2.08;1.30;;;;;;;15.14;100.00;103405.16;4973808;28;20056;-77
2023/02/12 08:21:25;;;;;;;4.20;1.58;;;;;;;15.09;100.00;103401.59;4974041;28;20109;-72
2023/02/12 08:23:53;;;;;;;4.13;1.27;;;;;;;15.06;100.00;103405.75;4973393;28;20540;-73
2023/02/12 08:26:27;;;;;;;3.63;1.20;;;;;;;15.10;100.00;103409.56;4973580;28;20034;-73
2023/02/12 08:28:57;;;;;;;5.70;1.20;;;;;;;15.23;98.57;103405.41;4976883;28;20054;-72
2023/02/12 08:31:25;;;;;;;4.15;1.33;;;;;;;15.29;97.36;103403.47;4977428;28;20113;-73
2023/02/12 08:33:52;;;;;;;4.03;1.63;;;;;;;15.20;98.59;103400.47;4977282;28;20397;-73
2023/02/12 08:36:21;;;;;;;2.10;1.30;;;;;;;15.29;97.17;103407.06;4977234;28;20030;-73
2023/02/12 08:38:47;;;;;;;3.90;1.90;;;;;;;15.06;100.00;103405.75;4977170;28;20512;-73
2023/02/12 08:41:22;;;;;;;7.47;1.77;;;;;;;15.14;100.00;103407.09;4977317;28;20031;-73
2023/02/12 08:43:51;;;;;;;6.53;1.95;;;;;;;15.28;100.00;103397.16;4977235;28;20501;-74
2023/02/12 08:46:20;;;;;;;3.97;1.40;;;;;;;15.24;100.00;103405.13;4977276;28;20127;-74
2023/02/12 08:48:46;;;;;;;8.17;1.83;;;;;;;15.39;98.52;103408.94;4972336;28;20030;-72
2023/02/12 08:51:18;;;;;;;2.40;1.42;;;;;;;15.36;99.55;103402.06;4971380;28;20386;-72
2023/02/12 08:53:47;;;;;;;4.28;1.48;;;;;;;15.41;99.85;103402.03;4963614;28;20027;-73
2023/02/12 08:56:14;;;;;;;5.45;1.40;;;;;;;15.20;100.00;103404.06;4966055;28;20035;-76
2023/02/12 08:58:41;;;;;;;4.22;1.58;;;;;;;15.41;100.00;103407.53;4976813;28;20041;-75
2023/02/12 09:01:21;;;;;;;6.57;1.50;;;;;;;15.45;100.00;103400.38;4976913;28;20027;-73
2023/02/12 09:03:47;;;;;;;4.90;1.38;;;;;;;15.63;98.35;103406.41;4975284;28;20066;-73
2023/02/12 09:06:15;;;;;;;4.45;1.60;;;;;;;15.59;98.90;103410.81;4972112;28;20031;-73
2023/02/12 09:08:44;;;;;;;4.47;1.42;;;;;;;15.61;98.37;103403.94;4968444;28;20398;-72
2023/02/12 09:11:12;;;;;;;4.75;1.10;;;;;;;15.57;98.43;103404.72;4976705;28;20035;-72
2023/02/12 09:13:39;;;;;;;7.93;1.70;;;;;;;15.54;98.88;103408.88;4976663;28;20030;-74
2023/02/12 09:16:06;;;;;;;4.03;1.00;;;;;;;15.66;96.68;103405.84;4974831;28;20050;-72
2023/02/12 09:18:32;;;;;;;5.90;1.58;;;;;;;15.52;100.00;103397.31;4957281;28;20426;-71
2023/02/12 09:21:07;;;;;;;4.65;1.40;;;;;;;15.79;94.67;103399.69;4957508;28;20042;-76
2023/02/12 09:23:33;;;;;;;3.67;1.50;;;;;;;15.84;94.06;103393.34;4965845;28;20039;-77
2023/02/12 09:26:02;;;;;;;3.47;1.55;;;;;;;15.81;93.86;103397.50;4973273;28;20031;-72
2023/02/12 09:28:27;;;;;;;3.17;1.35;;;;;;;15.70;97.07;103390.38;4967683;28;20450;-72
2023/02/12 09:30:53;;;;;;;5.15;1.80;;;;;;;15.70;97.40;103395.88;4968108;28;20031;-73
2023/02/12 09:33:19;;;;;;;3.85;1.40;;;;;;;15.70;98.88;103395.88;4969689;28;20028;-73
2023/02/12 09:35:44;;;;;;;3.75;1.63;;;;;;;15.85;95.28;103395.81;4966047;28;20023;-74
2023/02/12 09:38:10;;;;;;;4.80;1.98;;;;;;;15.85;95.14;103393.03;4967576;28;20058;-73
2023/02/12 09:41:17;;;;;;;8.20;1.40;;;;;;;15.85;95.84;103390.28;4946328;28;20036;-73
2023/02/12 09:44:20;;;;;;;4.82;1.50;;;;;;;15.68;98.76;103376.88;4914905;29;20511;-72
2023/02/12 09:47:45;;;;;;;10.25;2.33;;;;;;;15.94;96.21;103383.06;4966291;28;20055;-78
2023/02/12 09:50:16;;;;;;;3.78;1.10;;;;;;;16.17;91.96;103376.03;4955986;28;20039;-73
2023/02/12 09:52:42;;;;;;;4.90;1.50;;;;;;;16.20;90.95;103382.91;4966332;28;20022;-75
2023/02/12 09:55:15;;;;;;;7.78;2.13;;;;;;;16.14;92.46;103384.03;4964742;28;20031;-72
2023/02/12 09:57:41;;;;;;;3.88;1.63;;;;;;;16.26;91.01;103379.00;4965434;28;20493;-74
2023/02/12 10:00:30;;;;;;;3.60;1.83;;;;;;;16.31;90.21;103385.28;4967166;28;20027;-77
2023/02/12 10:03:10;;;;;;;10.32;2.45;;;;;;;16.28;90.36;103379.53;4967628;28;20023;-73
2023/02/12 10:05:48;;;;;;;7.07;1.60;;;;;;;16.27;88.98;103375.94;4966579;28;20051;-77
2023/02/12 10:08:40;;;;;;;4.25;1.52;;;;;;;16.47;86.44;103380.47;4969245;28;20059;-75
2023/02/12 10:11:23;;;;;;;6.90;2.10;;;;;;;16.44;87.72;103386.56;4966507;28;20041;-73
2023/02/12 10:14:01;;;;;;;4.85;1.80;;;;;;;16.44;88.50;103374.72;4957536;28;20039;-73
2023/02/12 10:16:45;;;;;;;4.63;2.00;;;;;;;16.36;89.92;103373.41;4975111;28;20532;-76
2023/02/12 10:19:32;;;;;;;5.78;2.55;;;;;;;16.34;91.63;103378.38;4975268;28;20037;-73
2023/02/12 10:22:37;;;;;;;5.30;2.53;;;;;;;16.28;91.67;103382.28;4975315;28;20038;-74
2023/02/12 10:25:26;;;;;;;8.38;2.28;;;;;;;16.38;90.52;103380.25;4956194;28;20101;-76
2023/02/12 10:27:56;;;;;;;10.40;3.28;;;;;;;16.75;86.01;103370.59;4955906;28;20028;-74
2023/02/12 10:30:41;;;;;;;9.75;3.22;;;;;;;16.63;85.85;103376.47;4956096;28;20081;-72
2023/02/12 10:33:31;;;;;;;8.07;3.33;;;;;;;16.55;86.29;103371.59;4962120;28;20112;-72
2023/02/12 10:36:36;;;;;;;7.65;2.50;;;;;;;16.59;86.84;103364.34;4963960;28;20039;-73
2023/02/12 10:39:32;;;;;;;7.97;3.03;;;;;;;16.29;90.52;103367.38;4973309;28;20038;-73
2023/02/12 10:42:10;;;;;;;8.68;2.80;;;;;;;16.28;90.97;103362.97;4974750;28;20038;-72
2023/02/12 10:44:36;;;;;;;11.32;3.00;;;;;;;16.51;88.29;103373.25;4974790;28;20038;-73
2023/02/12 10:47:01;;;;;;;7.47;2.55;;;;;;;16.54;86.54;103375.44;4975059;28;20114;-74
2023/02/12 10:49:30;;;;;;;11.68;3.63;;;;;;;16.60;83.81;103370.69;4974929;28;20027;-72
2023/02/12 10:52:35;;;;;;;14.40;3.85;;;;;;;16.57;79.62;103369.34;4974671;28;20027;-72
2023/02/12 10:55:01;;;;;;;8.88;3.17;;;;;;;16.81;78.84;103374.94;4974912;28;20043;-72
2023/02/12 10:57:29;;;;;;;39.60;6.90;;;;;;;16.73;77.86;103363.72;4974771;28;20074;-74
2023/02/12 11:00:12;;;;;;;10.82;2.67;;;;;;;16.57;80.04;103366.59;4974721;28;20482;-72
2023/02/12 11:02:39;;;;;;;23.48;4.68;;;;;;;16.51;81.00;103362.22;4974637;28;20035;-72
2023/02/12 11:05:24;;;;;;;15.90;3.47;;;;;;;16.41;77.45;103367.03;4973148;28;20406;-72
2023/02/12 11:07:51;;;;;;;16.10;4.55;;;;;;;16.52;77.86;103374.91;4974860;28;20079;-74
2023/02/12 11:10:40;;;;;;;13.15;5.18;;;;;;;16.74;73.12;103359.84;4974699;28;20022;-74
2023/02/12 11:13:23;;;;;;;34.90;5.97;;;;;;;16.63;74.09;103364.63;4969250;28;20113;-71
2023/02/12 11:15:49;;;;;;;48.10;9.32;;;;;;;16.72;72.54;103360.13;4972533;28;20030;-72
2023/02/12 11:18:25;;;;;;;23.27;5.07;;;;;;;16.55;69.18;103363.31;4972905;28;20029;-72
2023/02/12 11:21:00;;;;;;;50.92;8.32;;;;;;;16.77;65.84;103353.72;4970689;28;20026;-74
2023/02/12 11:23:38;;;;;;;23.38;5.32;;;;;;;16.94;64.35;103362.41;4967307;28;20027;-81
2023/02/12 11:26:18;;;;;;;16.25;4.13;;;;;;;16.78;63.20;103345.16;4984924;28;20121;-79
2023/02/12 11:29:19;;;;;;;15.63;3.50;;;;;;;16.71;60.40;103350.22;4983029;28;20485;-94
2023/02/12 11:32:01;;;;;;;21.90;6.28;;;;;;;16.85;58.81;103342.03;4972066;28;20060;-83
2023/02/12 11:34:28;;;;;;;13.55;4.25;;;;;;;17.26;57.92;103334.09;4966326;28;20058;-78
2023/02/12 11:36:54;;;;;;;28.85;6.13;;;;;;;16.94;58.78;103337.53;4977892;28;20066;-87
2023/02/12 11:39:23;;;;;;;16.27;4.72;;;;;;;17.26;57.05;103327.75;4978311;28;20706;-79
2023/02/12 11:42:16;;;;;;;36.97;8.20;;;;;;;17.17;56.04;103322.91;4971244;28;20047;-80
2023/02/12 11:44:58;;;;;;;32.65;5.55;;;;;;;17.24;55.15;103327.25;4971905;28;20062;-82
2023/02/12 11:47:35;;;;;;;19.00;5.47;;;;;;;17.05;54.91;103321.66;4970091;28;20097;-89
2023/02/12 11:50:29;;;;;;;33.35;6.85;;;;;;;17.08;54.67;103321.91;4970998;28;20169;-81